Time;durP1;ratioP1;P1;durP2;ratioP2;P2;SDS_P1;SDS_P2;PMS_P1;PMS_P2;Temp;Humidity;BMP_temperature;BMP_pressure;BME280_temperature;BME280_humidity;BME280_pressure;Samples;Min_cycle;Max_cycle;Signal;HPM_P1;HPM_P2
2021/05/15 00:00:57;;;;;;;12.97;10.10;;;;;;;9.12;100.00;97529.05;3815848;77;43014;-25
2021/05/15 00:06:02;;;;;;;11.03;9.57;;;;;;;9.09;100.00;97528.90;3819026;76;76489;-24
2021/05/15 00:11:07;;;;;;;10.73;8.53;;;;;;;9.06;100.00;97520.66;3815361;76;44668;-24
2021/05/15 00:16:12;;;;;;;12.23;10.23;;;;;;;9.04;100.00;97517.34;3822478;76;44089;-23
2021/05/15 00:21:17;;;;;;;10.90;9.20;;;;;;;8.98;100.00;97523.91;3821322;76;43700;-21
2021/05/15 00:26:21;;;;;;;14.43;10.80;;;;;;;9.02;100.00;97527.90;3822464;77;44053;-20
2021/05/15 00:31:26;;;;;;;13.83;11.00;;;;;;;9.07;100.00;97525.55;3825153;76;43431;-20
2021/05/15 00:36:32;;;;;;;14.33;11.03;;;;;;;9.09;100.00;97529.73;3822149;77;77518;-21
2021/05/15 00:41:37;;;;;;;12.88;10.58;;;;;;;9.12;100.00;97529.88;3821834;76;44129;-21
2021/05/15 00:46:45;;;;;;;14.93;11.20;;;;;;;9.15;100.00;97533.56;3822674;76;42760;-20
2021/05/15 00:51:50;;;;;;;14.13;11.33;;;;;;;9.17;100.00;97543.64;3821937;76;44079;-22
2021/05/15 00:56:56;;;;;;;11.77;10.13;;;;;;;9.19;100.00;97542.97;3818673;76;77391;-21
2021/05/15 01:02:01;;;;;;;13.50;10.70;;;;;;;9.19;100.00;97547.48;3823899;76;44146;-21
2021/05/15 01:07:09;;;;;;;13.47;11.07;;;;;;;9.17;100.00;97535.58;3819734;77;43455;-21
2021/05/15 01:12:14;;;;;;;14.73;10.87;;;;;;;9.15;100.00;97524.16;3822153;76;77827;-22
2021/05/15 01:17:19;;;;;;;13.20;10.60;;;;;;;9.08;100.00;97528.56;3818185;76;43590;-22
2021/05/15 01:22:24;;;;;;;11.80;9.83;;;;;;;9.04;100.00;97525.88;3822342;76;44091;-21
2021/05/15 01:27:29;;;;;;;14.40;11.03;;;;;;;8.97;100.00;97524.39;3818109;76;77426;-21
2021/05/15 01:32:36;;;;;;;13.53;10.35;;;;;;;8.92;100.00;97522.23;3822519;76;77760;-21
2021/05/15 01:37:41;;;;;;;13.10;10.43;;;;;;;8.87;100.00;97516.56;3816463;76;43279;-21
2021/05/15 01:42:46;;;;;;;12.07;10.33;;;;;;;8.81;100.00;97520.44;3822807;77;44175;-21
2021/05/15 01:47:50;;;;;;;10.83;9.60;;;;;;;8.73;100.00;97519.95;3799631;76;44038;-20
2021/05/15 01:52:56;;;;;;;13.07;9.83;;;;;;;8.68;100.00;97504.84;3797309;78;44842;-22
2021/05/15 01:58:01;;;;;;;11.67;8.60;;;;;;;8.63;100.00;97508.91;3792099;76;44016;-22
2021/05/15 02:03:06;;;;;;;8.17;7.10;;;;;;;8.55;100.00;97519.63;3801217;76;43791;-22
2021/05/15 02:08:11;;;;;;;8.67;7.47;;;;;;;8.54;100.00;97519.30;3792582;78;43444;-22
2021/05/15 02:13:17;;;;;;;9.03;7.53;;;;;;;8.53;100.00;97507.41;3798124;78;44406;-22
2021/05/15 02:18:23;;;;;;;10.30;7.80;;;;;;;8.42;100.00;97500.01;3799175;76;43413;-22
2021/05/15 02:23:28;;;;;;;9.23;7.50;;;;;;;8.38;100.00;97493.30;3796439;78;71169;-22
2021/05/15 02:28:33;;;;;;;7.23;6.20;;;;;;;8.37;100.00;97490.80;3797018;76;44066;-21
2021/05/15 02:33:38;;;;;;;8.57;6.60;;;;;;;8.24;100.00;97492.16;3798898;76;43486;-21
2021/05/15 02:38:42;;;;;;;7.53;6.33;;;;;;;8.17;100.00;97489.82;3797786;78;44910;-21
2021/05/15 02:43:47;;;;;;;10.00;6.50;;;;;;;8.09;100.00;97488.47;3798495;78;43719;-23
2021/05/15 02:48:52;;;;;;;7.20;6.47;;;;;;;8.00;100.00;97499.20;3798720;76;43452;-22
2021/05/15 02:53:56;;;;;;;8.73;6.50;;;;;;;7.94;100.00;97499.86;3798610;76;44417;-22
2021/05/15 02:59:01;;;;;;;7.47;6.70;;;;;;;7.92;100.00;97515.30;3792340;76;44107;-22
2021/05/15 03:04:06;;;;;;;7.10;6.40;;;;;;;7.88;100.00;97505.91;3787120;76;44047;-22
2021/05/15 03:09:11;;;;;;;9.23;6.20;;;;;;;7.84;100.00;97507.23;3787033;78;44089;-21
2021/05/15 03:14:15;;;;;;;7.97;6.30;;;;;;;7.76;100.00;97514.77;3792446;78;44792;-21
2021/05/15 03:19:21;;;;;;;6.73;5.20;;;;;;;7.73;100.00;97507.56;3788600;77;44863;-21
2021/05/15 03:24:26;;;;;;;7.27;5.60;;;;;;;7.71;100.00;97513.09;3795899;76;44289;-21
2021/05/15 03:29:30;;;;;;;7.53;5.37;;;;;;;7.73;100.00;97511.09;3793105;78;45159;-21
2021/05/15 03:34:35;;;;;;;5.93;4.90;;;;;;;7.70;100.00;97516.27;3796001;76;43467;-20
2021/05/15 03:39:40;;;;;;;4.87;4.37;;;;;;;7.67;100.00;97516.62;3792846;77;44081;-22
2021/05/15 03:44:45;;;;;;;6.30;4.53;;;;;;;7.61;100.00;97514.58;3797681;77;44023;-21
2021/05/15 03:49:50;;;;;;;6.33;4.53;;;;;;;7.61;100.00;97509.73;3794197;77;43318;-20
2021/05/15 03:54:54;;;;;;;5.63;4.60;;;;;;;7.55;100.00;97511.23;3741079;78;44709;-21
2021/05/15 03:59:59;;;;;;;7.30;5.00;;;;;;;7.49;100.00;97497.98;3737062;79;43263;-23
2021/05/15 04:05:05;;;;;;;5.43;4.73;;;;;;;7.45;100.00;97507.35;3727090;78;44030;-21
2021/05/15 04:10:12;;;;;;;5.43;4.57;;;;;;;7.46;100.00;97507.69;3726126;79;43709;-22
2021/05/15 04:15:34;;;;;;;5.90;4.87;;;;;;;7.46;100.00;97512.22;3717812;79;44066;-21
2021/05/15 04:20:26;;;;;;;7.77;4.53;;;;;;;7.50;100.00;97521.59;3734688;78;44154;-22
2021/05/15 04:25:31;;;;;;;7.53;5.07;;;;;;;7.53;100.00;97522.09;3741433;78;43037;-21
2021/05/15 04:30:36;;;;;;;5.53;4.57;;;;;;;7.64;100.00;97519.62;3740180;78;43381;-22
2021/05/15 04:35:41;;;;;;;5.17;3.87;;;;;;;7.73;100.00;97519.14;3640812;80;43557;-21
2021/05/15 04:40:46;;;;;;;4.97;3.77;;;;;;;7.81;100.00;97513.78;3792981;78;44058;-21
2021/05/15 04:45:53;;;;;;;4.87;3.70;;;;;;;7.91;100.00;97518.98;3741158;77;44044;-22
2021/05/15 04:50:58;;;;;;;5.47;3.67;;;;;;;8.06;100.00;97519.16;3802443;76;43486;-21
2021/05/15 04:56:03;;;;;;;5.27;3.67;;;;;;;8.22;100.00;97511.59;3796709;77;42662;-22
2021/05/15 05:01:08;;;;;;;3.50;2.80;;;;;;;8.34;100.00;97514.80;3793027;76;44050;-22
2021/05/15 05:06:12;;;;;;;3.50;2.60;;;;;;;8.46;100.00;97519.30;3797549;77;43387;-21
2021/05/15 05:11:17;;;;;;;3.33;2.53;;;;;;;8.60;100.00;97515.95;3793558;76;43670;-22
2021/05/15 05:16:22;;;;;;;3.03;2.00;;;;;;;8.81;100.00;97514.55;3801163;76;43714;-22
2021/05/15 05:21:27;;;;;;;2.40;2.20;;;;;;;8.98;100.00;97513.98;3796428;78;43708;-22
2021/05/15 05:26:36;;;;;;;2.67;2.07;;;;;;;9.20;100.00;97517.77;3799361;78;43910;-22
2021/05/15 05:31:41;;;;;;;3.03;1.90;;;;;;;9.38;100.00;97521.55;3796373;76;43275;-22
2021/05/15 05:36:47;;;;;;;2.63;2.00;;;;;;;9.55;100.00;97522.78;3799614;78;44045;-22
2021/05/15 05:41:52;;;;;;;2.63;2.03;;;;;;;9.71;100.00;97514.63;3798356;76;43706;-22
2021/05/15 05:46:58;;;;;;;3.08;2.17;;;;;;;10.05;100.00;97521.97;3801804;76;43362;-23
2021/05/15 05:52:04;;;;;;;2.80;2.10;;;;;;;10.29;100.00;97529.52;3806074;78;43353;-22
2021/05/15 05:57:09;;;;;;;2.03;1.83;;;;;;;10.29;100.00;97526.81;3800569;78;73681;-21
2021/05/15 06:02:13;;;;;;;3.05;2.08;;;;;;;10.50;100.00;97537.43;3806345;76;43348;-22
2021/05/15 06:07:18;;;;;;;2.50;2.30;;;;;;;10.55;100.00;97529.13;3800832;76;44027;-22
2021/05/15 06:12:23;;;;;;;2.25;2.00;;;;;;;10.64;100.00;97523.98;3805412;76;44549;-22
2021/05/15 06:17:28;;;;;;;3.60;2.20;;;;;;;10.75;100.00;97525.39;3799949;76;42747;-22
2021/05/15 06:22:34;;;;;;;3.10;2.30;;;;;;;10.83;100.00;97526.31;3804814;78;44388;-22
2021/05/15 06:27:39;;;;;;;2.85;1.90;;;;;;;11.02;100.00;97538.41;3798800;76;43106;-22
2021/05/15 06:32:44;;;;;;;2.83;1.97;;;;;;;11.03;100.00;97536.86;3809422;76;43309;-22
2021/05/15 06:37:50;;;;;;;2.85;1.70;;;;;;;11.16;100.00;97542.11;3803709;76;44078;-22
2021/05/15 06:42:55;;;;;;;2.95;1.87;;;;;;;11.20;100.00;97533.98;3805455;76;44058;-22
2021/05/15 06:48:00;;;;;;;2.33;1.80;;;;;;;11.29;100.00;97536.90;3803397;76;43659;-22
2021/05/15 06:53:04;;;;;;;3.13;1.97;;;;;;;11.36;100.00;97536.98;3799526;78;44098;-23
2021/05/15 06:58:09;;;;;;;2.50;2.05;;;;;;;11.47;100.00;97546.44;3797550;77;44062;-22
2021/05/15 07:03:14;;;;;;;2.00;1.80;;;;;;;11.51;100.00;97545.05;3799726;76;43358;-22
2021/05/15 07:08:19;;;;;;;3.33;1.87;;;;;;;11.47;100.00;97543.73;3794609;76;73557;-22
2021/05/15 07:13:24;;;;;;;2.87;1.70;;;;;;;11.64;100.00;97546.55;3796753;78;43731;-22
2021/05/15 07:18:29;;;;;;;2.80;1.80;;;;;;;11.74;100.00;97540.02;3788785;76;43365;-22
2021/05/15 07:23:34;;;;;;;1.82;1.60;;;;;;;11.75;100.00;97531.75;3794165;78;44127;-22
2021/05/15 07:28:39;;;;;;;3.97;2.03;;;;;;;11.74;100.00;97526.52;3792496;78;43405;-22
2021/05/15 07:33:43;;;;;;;1.60;1.50;;;;;;;11.94;100.00;97527.56;3791694;77;43392;-21
2021/05/15 07:38:48;;;;;;;2.42;1.50;;;;;;;12.06;100.00;97516.28;3796389;77;43331;-22
2021/05/15 07:43:53;;;;;;;1.77;1.37;;;;;;;12.02;100.00;97513.98;3794135;76;44055;-21
2021/05/15 07:48:58;;;;;;;1.92;1.60;;;;;;;11.92;100.00;97517.49;3790586;76;44089;-22
2021/05/15 07:54:03;;;;;;;2.67;1.80;;;;;;;11.75;100.00;97521.45;3799034;76;43381;-21
2021/05/15 07:59:08;;;;;;;1.92;1.70;;;;;;;11.87;100.00;97519.42;3794915;78;43630;-24
2021/05/15 08:04:13;;;;;;;1.87;1.75;;;;;;;12.15;100.00;97521.36;3799212;76;43393;-22
2021/05/15 08:09:18;;;;;;;1.98;1.40;;;;;;;12.25;100.00;97529.64;3794059;78;44122;-21
2021/05/15 08:14:24;;;;;;;1.82;1.50;;;;;;;12.29;100.00;97523.66;3794413;76;43995;-21
2021/05/15 08:19:28;;;;;;;2.25;1.57;;;;;;;12.45;100.00;97520.37;3798607;76;44206;-22
2021/05/15 08:24:34;;;;;;;2.05;1.50;;;;;;;12.94;100.00;97524.02;3799838;76;44092;-22
2021/05/15 08:29:39;;;;;;;1.37;1.10;;;;;;;13.12;100.00;97516.74;3791822;78;43317;-22
2021/05/15 08:34:44;;;;;;;2.27;1.22;;;;;;;13.59;100.00;97513.44;3797542;76;44040;-22
2021/05/15 08:39:49;;;;;;;2.80;1.22;;;;;;;13.72;100.00;97499.95;3794123;78;43618;-22
2021/05/15 08:44:56;;;;;;;1.20;1.10;;;;;;;13.46;100.00;97500.20;3787238;76;43709;-22
2021/05/15 08:50:04;;;;;;;3.85;1.40;;;;;;;13.52;100.00;97508.85;3793127;76;43370;-21
2021/05/15 08:55:11;;;;;;;1.40;1.30;;;;;;;13.63;100.00;97516.06;3815971;76;43585;-21
2021/05/15 09:00:21;;;;;;;2.27;1.10;;;;;;;13.56;100.00;97496.59;3810306;77;43289;-21
2021/05/15 09:05:27;;;;;;;2.17;1.17;;;;;;;13.69;96.70;97493.61;3814515;76;43400;-22
2021/05/15 09:10:36;;;;;;;1.30;1.20;;;;;;;13.98;93.19;97480.23;3815305;77;43399;-22
2021/05/15 09:15:44;;;;;;;2.20;1.75;;;;;;;13.89;98.34;97470.62;3817431;76;43927;-22
2021/05/15 09:20:52;;;;;;;1.20;1.10;;;;;;;13.90;99.57;97466.05;3818471;76;43651;-22
2021/05/15 09:26:04;;;;;;;2.35;1.05;;;;;;;13.91;99.33;97468.55;3822962;76;43717;-22
2021/05/15 09:31:19;;;;;;;0.93;0.72;;;;;;;14.09;95.06;97475.24;3820238;76;44583;-22
2021/05/15 09:36:27;;;;;;;2.50;0.82;;;;;;;14.28;92.09;97468.17;3821623;77;43283;-22
2021/05/15 09:41:37;;;;;;;1.12;0.68;;;;;;;14.26;77.20;97467.54;3820241;77;43466;-22
2021/05/15 09:46:46;;;;;;;0.90;0.80;;;;;;;14.56;77.26;97460.31;3824765;76;43739;-23
2021/05/15 09:51:53;;;;;;;0.95;0.82;;;;;;;14.48;77.89;97462.20;3805119;76;43483;-22
2021/05/15 09:57:01;;;;;;;1.60;1.05;;;;;;;14.48;75.65;97446.45;3795263;78;44049;-22
2021/05/15 10:02:09;;;;;;;1.35;0.90;;;;;;;14.86;80.91;97443.61;3798137;76;43998;-22
2021/05/15 10:07:19;;;;;;;1.62;0.80;;;;;;;14.58;82.47;97450.09;3793893;77;45106;-22
2021/05/15 10:12:24;;;;;;;0.80;0.80;;;;;;;14.58;88.23;97437.90;3799168;78;43753;-22
2021/05/15 10:17:30;;;;;;;0.85;0.82;;;;;;;14.48;87.98;97434.26;3793578;76;43685;-22
2021/05/15 10:22:40;;;;;;;0.72;0.70;;;;;;;14.26;84.54;97428.25;3797718;76;43386;-22
2021/05/15 10:27:46;;;;;;;3.15;0.80;;;;;;;14.08;87.59;97427.00;3794057;77;44036;-22
2021/05/15 10:33:01;;;;;;;1.05;0.82;;;;;;;14.64;87.37;97426.23;3797620;76;43337;-22
2021/05/15 10:38:10;;;;;;;1.22;0.90;;;;;;;14.31;85.02;97406.77;3792846;78;44071;-22
2021/05/15 10:43:18;;;;;;;1.57;1.37;;;;;;;14.25;81.54;97411.16;3794417;78;44086;-22
2021/05/15 10:48:27;;;;;;;2.00;0.85;;;;;;;14.58;80.39;97385.05;3804334;76;43405;-22
2021/05/15 10:53:34;;;;;;;0.78;0.70;;;;;;;14.84;78.66;97383.34;3805221;76;43386;-23
2021/05/15 10:58:45;;;;;;;1.20;0.82;;;;;;;15.02;80.21;97372.61;3805289;78;44108;-22
2021/05/15 11:03:52;;;;;;;1.77;0.88;;;;;;;15.09;77.32;97363.08;3800857;76;43996;-22
2021/05/15 11:08:59;;;;;;;0.88;0.70;;;;;;;15.18;69.76;97359.60;3804471;78;43724;-23
2021/05/15 11:14:07;;;;;;;1.95;0.80;;;;;;;15.34;74.43;97357.74;3804312;76;43674;-23
2021/05/15 11:19:14;;;;;;;1.17;0.80;;;;;;;15.34;74.17;97348.25;3801131;76;43377;-23
2021/05/15 11:24:28;;;;;;;1.00;0.62;;;;;;;15.62;72.37;97346.17;3806407;78;44075;-22
2021/05/15 11:29:35;;;;;;;0.98;0.80;;;;;;;15.53;72.95;97345.06;3802120;76;44050;-22
2021/05/15 11:34:43;;;;;;;0.82;0.80;;;;;;;15.41;68.04;97336.81;3806854;76;44020;-22
2021/05/15 11:39:53;;;;;;;1.72;0.98;;;;;;;15.17;63.40;97338.41;3803056;76;44164;-22
2021/05/15 11:44:59;;;;;;;1.00;0.90;;;;;;;14.28;85.58;97343.02;3806297;78;44091;-23
2021/05/15 11:50:10;;;;;;;0.85;0.75;;;;;;;14.27;88.82;97356.78;3806034;76;43336;-23
2021/05/15 11:55:17;;;;;;;1.07;0.85;;;;;;;14.47;85.75;97333.17;3799597;78;44184;-23
2021/05/15 12:00:28;;;;;;;2.58;0.90;;;;;;;14.67;81.75;97331.44;3794808;76;44103;-23
2021/05/15 12:05:34;;;;;;;1.00;0.80;;;;;;;14.68;83.25;97327.19;3802974;76;44002;-23
2021/05/15 12:10:41;;;;;;;2.62;1.00;;;;;;;14.75;76.31;97323.09;3789954;76;43693;-23
2021/05/15 12:15:49;;;;;;;0.70;0.70;;;;;;;14.87;77.09;97313.77;3799451;78;43569;-22
2021/05/15 12:20:55;;;;;;;1.05;0.68;;;;;;;15.36;76.06;97304.59;3794810;76;44096;-22
2021/05/15 12:26:03;;;;;;;0.80;0.78;;;;;;;15.07;72.55;97302.79;3799269;78;44044;-22
2021/05/15 12:31:11;;;;;;;1.32;0.90;;;;;;;15.05;74.62;97309.80;3793232;76;43866;-22
2021/05/15 12:36:17;;;;;;;1.00;0.90;;;;;;;14.96;76.84;97307.05;3794140;78;44704;-23
2021/05/15 12:41:24;;;;;;;3.08;1.20;;;;;;;14.59;72.41;97318.95;3793020;76;43392;-22
2021/05/15 12:46:32;;;;;;;1.20;1.10;;;;;;;13.20;94.24;97329.99;3798951;77;43628;-23
2021/05/15 12:51:40;;;;;;;0.90;0.90;;;;;;;12.98;100.00;97327.14;3797897;77;44028;-22
2021/05/15 12:56:51;;;;;;;1.70;1.60;;;;;;;13.26;100.00;97294.00;3791661;78;44487;-22
2021/05/15 13:02:14;;;;;;;1.90;1.40;;;;;;;13.91;100.00;97270.08;3739296;78;44063;-22
2021/05/15 13:07:29;;;;;;;1.37;0.80;;;;;;;14.84;100.00;97269.45;3636313;80;43269;-21
2021/05/15 13:12:37;;;;;;;1.15;0.70;;;;;;;14.91;96.79;97271.59;3775175;77;43407;-30
2021/05/15 13:17:43;;;;;;;0.70;0.70;;;;;;;14.84;90.85;97265.39;3728739;78;43038;-22
2021/05/15 13:22:49;;;;;;;0.57;0.57;;;;;;;14.86;87.45;97255.98;3720807;79;44025;-22
2021/05/15 13:27:55;;;;;;;1.12;0.80;;;;;;;15.05;84.80;97255.55;3724819;78;44034;-22
2021/05/15 13:33:02;;;;;;;0.80;0.70;;;;;;;15.75;76.60;97245.61;3636401;80;44077;-22
2021/05/15 13:38:09;;;;;;;1.40;0.80;;;;;;;15.99;79.22;97233.06;3782315;77;43375;-21
2021/05/15 13:43:15;;;;;;;0.70;0.60;;;;;;;16.30;73.67;97225.80;3724733;78;44076;-22
2021/05/15 13:48:32;;;;;;;0.68;0.68;;;;;;;16.64;71.02;97213.96;3636579;80;43993;-22
2021/05/15 13:53:38;;;;;;;0.78;0.70;;;;;;;16.78;69.81;97211.91;3764563;78;44112;-23
2021/05/15 13:58:45;;;;;;;1.85;0.70;;;;;;;17.09;66.51;97211.91;3753834;77;43943;-22
2021/05/15 14:03:51;;;;;;;1.22;0.70;;;;;;;16.90;68.78;97213.30;3761984;77;44041;-24
2021/05/15 14:08:57;;;;;;;1.85;0.80;;;;;;;16.79;68.25;97207.28;3757284;77;43665;-23
2021/05/15 14:14:03;;;;;;;2.45;0.80;;;;;;;16.73;68.65;97200.88;3758156;79;43205;-22
2021/05/15 14:19:08;;;;;;;2.05;0.80;;;;;;;16.57;70.78;97190.13;3763634;77;43684;-22
2021/05/15 14:24:14;;;;;;;0.80;0.80;;;;;;;16.88;70.29;97186.84;3758750;77;44000;-22
2021/05/15 14:29:20;;;;;;;1.05;0.80;;;;;;;16.97;73.95;97174.33;3753991;79;44081;-23
2021/05/15 14:34:26;;;;;;;0.60;0.60;;;;;;;16.59;77.89;97177.65;3768477;77;44419;-24
2021/05/15 14:39:31;;;;;;;1.42;0.60;;;;;;;16.53;70.56;97178.59;3753696;77;44109;-23
2021/05/15 14:44:37;;;;;;;0.60;0.60;;;;;;;16.63;73.62;97171.55;3758906;79;43380;-23
2021/05/15 14:49:43;;;;;;;0.70;0.70;;;;;;;16.61;70.09;97170.09;3759738;77;44421;-22
2021/05/15 14:54:50;;;;;;;2.20;0.70;;;;;;;16.89;74.37;97162.67;3783816;77;43335;-23
2021/05/15 14:59:56;;;;;;;0.80;0.70;;;;;;;17.00;63.66;97161.59;3742521;79;43028;-22
2021/05/15 15:05:02;;;;;;;0.93;0.80;;;;;;;16.89;67.17;97151.79;3619807;80;43730;-23
2021/05/15 15:10:10;;;;;;;1.17;0.90;;;;;;;16.96;71.55;97150.90;3680591;79;44047;-24
2021/05/15 15:15:16;;;;;;;1.40;0.70;;;;;;;17.41;65.19;97144.35;3757747;77;44724;-23
2021/05/15 15:20:22;;;;;;;0.72;0.60;;;;;;;16.78;62.72;97149.87;3755027;77;44026;-23
2021/05/15 15:25:28;;;;;;;0.60;0.60;;;;;;;16.51;66.31;97150.28;3760114;77;43326;-23
2021/05/15 15:30:35;;;;;;;0.93;0.60;;;;;;;16.36;61.13;97147.95;3758481;79;44153;-23
2021/05/15 15:35:41;;;;;;;0.98;0.33;;;;;;;16.38;62.86;97155.90;3760034;77;44063;-23
2021/05/15 15:40:48;;;;;;;0.37;0.37;;;;;;;15.27;66.88;97169.72;3757501;79;43946;-23
2021/05/15 15:45:54;;;;;;;0.57;0.37;;;;;;;14.54;68.88;97172.41;3737485;78;44060;-22
2021/05/15 15:51:01;;;;;;;0.40;0.40;;;;;;;14.06;71.14;97161.52;3735262;78;43031;-23
2021/05/15 15:56:07;;;;;;;0.30;0.30;;;;;;;13.86;76.61;97160.55;3631424;80;43955;-22
2021/05/15 16:01:14;;;;;;;0.30;0.30;;;;;;;13.68;74.38;97177.46;3761507;77;43450;-22
2021/05/15 16:06:19;;;;;;;0.47;0.40;;;;;;;13.68;75.54;97160.41;3767901;77;44082;-22
2021/05/15 16:11:25;;;;;;;0.60;0.40;;;;;;;13.65;78.03;97160.28;3760383;77;42716;-23
2021/05/15 16:16:32;;;;;;;0.82;0.60;;;;;;;13.59;75.23;97157.59;3765797;77;44137;-21
2021/05/15 16:21:38;;;;;;;1.67;0.60;;;;;;;13.91;80.99;97153.66;3759802;77;44058;-22
2021/05/15 16:26:45;;;;;;;1.70;1.27;;;;;;;13.84;73.82;97149.63;3770127;77;43992;-22
2021/05/15 16:31:52;;;;;;;2.25;1.40;;;;;;;14.00;80.82;97133.42;3766448;77;44065;-24
2021/05/15 16:36:58;;;;;;;1.10;1.00;;;;;;;14.14;78.59;97135.03;3787450;77;43971;-22
2021/05/15 16:42:07;;;;;;;1.07;0.70;;;;;;;14.18;77.83;97127.30;3765243;77;44393;-22
2021/05/15 16:47:16;;;;;;;0.90;0.80;;;;;;;14.07;77.36;97131.50;3762276;77;44018;-21
2021/05/15 16:52:24;;;;;;;1.22;1.00;;;;;;;14.10;75.92;97131.08;3783412;77;43232;-22
2021/05/15 16:57:30;;;;;;;1.57;0.70;;;;;;;14.41;74.20;97129.98;3770246;77;43780;-22
2021/05/15 17:02:40;;;;;;;0.60;0.60;;;;;;;14.60;72.94;97134.97;3765145;77;43682;-22
2021/05/15 17:07:46;;;;;;;0.62;0.53;;;;;;;14.55;77.32;97127.50;3761607;77;43802;-24
2021/05/15 17:12:52;;;;;;;0.80;0.65;;;;;;;14.55;80.77;97129.36;3766655;77;43365;-22
2021/05/15 17:17:58;;;;;;;0.88;0.80;;;;;;;14.25;83.92;97129.44;3757653;77;43775;-22
2021/05/15 17:23:04;;;;;;;1.22;1.05;;;;;;;14.16;84.90;97118.55;3764626;77;44118;-22
2021/05/15 17:28:10;;;;;;;1.30;0.90;;;;;;;14.10;84.80;97114.83;3760954;77;43389;-22
2021/05/15 17:33:16;;;;;;;1.37;0.70;;;;;;;14.17;84.98;97119.67;3764355;77;43397;-23
2021/05/15 17:38:22;;;;;;;1.00;0.70;;;;;;;14.24;81.27;97114.77;3762590;77;43723;-22
2021/05/15 17:43:28;;;;;;;2.17;0.88;;;;;;;14.25;85.73;97128.62;3765281;77;43124;-23
2021/05/15 17:48:36;;;;;;;0.93;0.80;;;;;;;13.70;85.07;97119.90;3765810;77;43353;-22
2021/05/15 17:53:46;;;;;;;0.88;0.70;;;;;;;13.61;90.21;97114.92;3770563;77;44018;-24
2021/05/15 17:58:53;;;;;;;1.62;1.10;;;;;;;13.43;89.66;97127.77;3764839;77;43334;-23
2021/05/15 18:03:58;;;;;;;1.07;0.75;;;;;;;13.38;90.69;97120.27;3771712;77;43895;-22
2021/05/15 18:09:05;;;;;;;3.10;1.50;;;;;;;13.28;91.56;97128.83;3756364;77;43658;-23
2021/05/15 18:14:12;;;;;;;1.10;1.00;;;;;;;13.23;94.19;97126.73;3767382;77;43408;-22
2021/05/15 18:19:22;;;;;;;2.08;1.20;;;;;;;13.22;94.30;97124.24;3752598;77;44061;-22
2021/05/15 18:24:28;;;;;;;1.20;0.80;;;;;;;13.05;93.11;97112.50;3781412;77;44197;-22
2021/05/15 18:29:34;;;;;;;1.10;1.00;;;;;;;13.01;94.88;97121.24;3773239;77;44558;-22
2021/05/15 18:34:42;;;;;;;2.52;1.30;;;;;;;13.04;95.89;97119.48;3765328;77;44055;-22
2021/05/15 18:39:48;;;;;;;1.75;1.20;;;;;;;13.04;94.98;97120.83;3766490;77;44046;-22
2021/05/15 18:44:54;;;;;;;1.40;1.20;;;;;;;12.99;95.31;97115.23;3761843;77;43414;-22
2021/05/15 18:50:01;;;;;;;1.07;0.98;;;;;;;12.98;95.73;97113.57;3769241;77;43491;-23
2021/05/15 18:55:10;;;;;;;1.52;0.82;;;;;;;12.93;98.59;97117.72;3760455;77;43384;-23
2021/05/15 19:00:19;;;;;;;1.00;0.80;;;;;;;12.91;99.80;97123.85;3760683;77;43257;-21
2021/05/15 19:05:25;;;;;;;1.35;0.93;;;;;;;12.84;100.00;97123.03;3756967;77;43234;-22
2021/05/15 19:10:31;;;;;;;1.00;0.80;;;;;;;12.61;100.00;97128.33;3756004;77;44033;-22
2021/05/15 19:15:37;;;;;;;1.10;0.98;;;;;;;12.42;99.92;97128.61;3755756;77;44078;-21
2021/05/15 19:20:43;;;;;;;1.30;1.05;;;;;;;12.35;100.00;97119.64;3757067;77;43706;-21
2021/05/15 19:25:49;;;;;;;1.30;1.10;;;;;;;12.30;100.00;97120.26;3754524;77;43467;-23
2021/05/15 19:30:57;;;;;;;1.98;1.00;;;;;;;12.30;100.00;97121.61;3761630;77;44093;-22
2021/05/15 19:36:06;;;;;;;1.20;1.10;;;;;;;12.26;100.00;97122.22;3764665;77;43246;-20
2021/05/15 19:41:11;;;;;;;0.95;0.90;;;;;;;12.26;100.00;97129.83;3756715;77;43333;-21
2021/05/15 19:46:18;;;;;;;1.07;0.80;;;;;;;12.30;100.00;97128.36;3757749;77;44066;-21
2021/05/15 19:51:24;;;;;;;3.10;1.02;;;;;;;12.14;100.00;97136.31;3757862;77;437103;-20
2021/05/15 19:56:31;;;;;;;1.52;1.02;;;;;;;12.16;100.00;97131.55;3744797;77;44045;-21
2021/05/15 20:01:37;;;;;;;1.20;1.00;;;;;;;12.14;100.00;97120.66;3691763;79;44027;-22
2021/05/15 20:06:43;;;;;;;2.40;1.20;;;;;;;12.02;100.00;97119.89;3696259;78;43713;-22
2021/05/15 20:11:49;;;;;;;1.75;1.20;;;;;;;11.97;100.00;97126.37;3702613;80;43340;-21
2021/05/15 20:16:55;;;;;;;3.27;1.50;;;;;;;11.91;100.00;97124.99;3761684;78;73307;-21
2021/05/15 20:22:05;;;;;;;1.63;0.80;;;;;;;11.81;100.00;97123.52;3753355;78;44030;-22
2021/05/15 20:27:11;;;;;;;0.70;0.70;;;;;;;11.70;100.00;97120.04;3786195;78;73580;-21
2021/05/15 20:32:18;;;;;;;0.90;0.90;;;;;;;11.66;100.00;97121.46;3733562;79;43688;-22
2021/05/15 20:37:23;;;;;;;1.10;0.90;;;;;;;11.56;100.00;97108.36;3702272;80;44002;-22
2021/05/15 20:42:31;;;;;;;1.20;1.10;;;;;;;11.46;100.00;97105.20;3762033;78;43380;-22
2021/05/15 20:47:38;;;;;;;1.35;1.20;;;;;;;11.44;100.00;97112.13;3773249;78;44083;-22
2021/05/15 20:52:45;;;;;;;1.62;1.02;;;;;;;11.43;100.00;97113.16;3770389;78;42773;-22
2021/05/15 20:57:50;;;;;;;3.37;1.30;;;;;;;11.38;100.00;97112.41;3729999;77;44064;-21
2021/05/15 21:02:58;;;;;;;2.00;1.60;;;;;;;11.31;100.00;97107.50;3663094;80;43486;-23
2021/05/15 21:08:05;;;;;;;2.33;1.30;;;;;;;11.28;100.00;97098.45;3741871;77;73149;-23
2021/05/15 21:13:11;;;;;;;1.92;1.50;;;;;;;11.17;100.00;97089.58;3731366;79;43471;-22
2021/05/15 21:18:18;;;;;;;2.02;1.30;;;;;;;11.10;100.00;97087.69;3741970;77;44818;-22
2021/05/15 21:23:24;;;;;;;1.30;1.17;;;;;;;10.97;100.00;97090.29;3737357;79;73360;-21
2021/05/15 21:28:31;;;;;;;1.87;1.25;;;;;;;10.88;100.00;97095.48;3740595;79;44072;-21
2021/05/15 21:33:37;;;;;;;1.85;1.40;;;;;;;10.76;100.00;97096.02;3752940;78;44060;-21
2021/05/15 21:38:43;;;;;;;1.52;1.30;;;;;;;10.70;100.00;97086.04;3735912;77;43981;-22
2021/05/15 21:43:51;;;;;;;3.25;1.67;;;;;;;10.66;100.00;97084.75;3735185;79;43717;-22
2021/05/15 21:48:57;;;;;;;1.93;1.47;;;;;;;10.58;100.00;97094.33;3742591;79;73313;-22
2021/05/15 21:54:03;;;;;;;1.85;1.50;;;;;;;10.26;100.00;97089.25;3738335;77;44064;-22
2021/05/15 21:59:10;;;;;;;2.00;1.72;;;;;;;10.28;100.00;97093.11;3761546;78;43995;-24
2021/05/15 22:04:16;;;;;;;2.43;1.60;;;;;;;10.18;100.00;97100.97;3769032;78;73378;-24
2021/05/15 22:09:24;;;;;;;2.00;1.50;;;;;;;10.11;100.00;97095.22;3766399;78;44045;-24
2021/05/15 22:14:29;;;;;;;2.02;1.40;;;;;;;10.18;100.00;97099.62;3771661;77;43924;-24
2021/05/15 22:19:35;;;;;;;1.90;1.67;;;;;;;10.25;100.00;97099.69;3769482;77;73268;-24
2021/05/15 22:24:41;;;;;;;1.57;1.47;;;;;;;10.16;100.00;97109.77;3771635;77;44847;-24
2021/05/15 22:29:48;;;;;;;1.50;1.30;;;;;;;10.16;100.00;97101.70;3772802;78;44098;-25
2021/05/15 22:34:54;;;;;;;1.60;1.30;;;;;;;10.28;100.00;97093.11;3770425;78;43754;-23
2021/05/15 22:40:00;;;;;;;1.80;1.10;;;;;;;10.19;100.00;97073.55;3771875;78;73345;-24
2021/05/15 22:45:11;;;;;;;1.72;1.00;;;;;;;10.02;100.00;97054.14;3769252;77;44648;-25
2021/05/15 22:50:18;;;;;;;1.27;1.07;;;;;;;9.92;100.00;97042.87;3772508;78;44055;-24
2021/05/15 22:55:24;;;;;;;1.50;1.10;;;;;;;9.83;100.00;97063.14;3770014;77;44039;-24
2021/05/15 23:00:32;;;;;;;1.40;1.17;;;;;;;9.84;100.00;97058.08;3702357;77;73235;-23
2021/05/15 23:05:38;;;;;;;1.57;1.20;;;;;;;9.80;100.00;97053.28;3693144;79;44553;-23
2021/05/15 23:10:44;;;;;;;1.33;1.10;;;;;;;9.78;100.00;97063.39;3680438;80;43709;-23
2021/05/15 23:15:50;;;;;;;1.93;1.13;;;;;;;9.78;100.00;97060.70;3636374;80;43718;-23
2021/05/15 23:20:56;;;;;;;1.27;1.10;;;;;;;9.72;100.00;97064.98;3699320;78;43152;-24
2021/05/15 23:26:03;;;;;;;2.75;1.17;;;;;;;9.64;100.00;97063.75;3691920;78;73343;-24
2021/05/15 23:31:10;;;;;;;1.33;1.10;;;;;;;9.57;100.00;97055.61;3705054;78;43758;-24
2021/05/15 23:36:17;;;;;;;1.40;1.10;;;;;;;9.54;100.00;97056.83;3697995;79;42910;-24
2021/05/15 23:41:24;;;;;;;1.20;1.10;;;;;;;9.41;100.00;97060.69;3698015;80;73310;-23
2021/05/15 23:46:31;;;;;;;1.20;1.10;;;;;;;9.38;100.00;97055.69;3705377;80;43369;-24
2021/05/15 23:51:40;;;;;;;1.40;1.20;;;;;;;9.35;100.00;97050.70;3703825;78;73239;-24